sensor_id;sensor_type;location;lat;lon;timestamp;pressure;altitude;pressure_sealevel;temperature;humidity
71126;BME280;58785;55.566;38.058;2023-05-03T00:01:29;100614.00;;;7.53;58.82
71126;BME280;58785;55.566;38.058;2023-05-03T00:03:55;100615.69;;;7.54;59.15
71126;BME280;58785;55.566;38.058;2023-05-03T00:06:21;100606.78;;;7.55;59.19
71126;BME280;58785;55.566;38.058;2023-05-03T00:08:47;100607.50;;;7.57;59.10
71126;BME280;58785;55.566;38.058;2023-05-03T00:11:13;100608.72;;;7.53;58.51
71126;BME280;58785;55.566;38.058;2023-05-03T00:13:38;100614.75;;;7.55;58.91
71126;BME280;58785;55.566;38.058;2023-05-03T00:16:05;100614.56;;;7.45;59.04
71126;BME280;58785;55.566;38.058;2023-05-03T00:18:30;100617.31;;;7.32;59.38
71126;BME280;58785;55.566;38.058;2023-05-03T00:20:59;100611.19;;;7.19;59.71
71126;BME280;58785;55.566;38.058;2023-05-03T00:23:25;100612.63;;;7.12;60.40
71126;BME280;58785;55.566;38.058;2023-05-03T00:25:54;100609.34;;;7.08;60.57
71126;BME280;58785;55.566;38.058;2023-05-03T00:28:20;100609.34;;;7.08;60.09
71126;BME280;58785;55.566;38.058;2023-05-03T00:30:47;100605.72;;;7.09;60.89
71126;BME280;58785;55.566;38.058;2023-05-03T00:33:13;100599.16;;;7.15;60.20
71126;BME280;58785;55.566;38.058;2023-05-03T00:35:39;100599.03;;;7.16;60.01
71126;BME280;58785;55.566;38.058;2023-05-03T00:38:05;100589.50;;;7.14;60.75
71126;BME280;58785;55.566;38.058;2023-05-03T00:40:31;100585.59;;;7.07;60.78
71126;BME280;58785;55.566;38.058;2023-05-03T00:42:56;100582.72;;;7.10;60.14
71126;BME280;58785;55.566;38.058;2023-05-03T00:45:22;100586.22;;;7.10;60.35
71126;BME280;58785;55.566;38.058;2023-05-03T00:47:48;100579.94;;;7.11;60.51
71126;BME280;58785;55.566;38.058;2023-05-03T00:50:14;100579.63;;;7.16;60.83
71126;BME280;58785;55.566;38.058;2023-05-03T00:52:40;100568.66;;;7.20;60.72
71126;BME280;58785;55.566;38.058;2023-05-03T00:55:06;100565.78;;;7.24;60.41
71126;BME280;58785;55.566;38.058;2023-05-03T00:57:32;100574.13;;;7.30;60.18
71126;BME280;58785;55.566;38.058;2023-05-03T00:59:58;100555.22;;;7.35;59.86
71126;BME280;58785;55.566;38.058;2023-05-03T01:02:25;100563.53;;;7.41;60.11
71126;BME280;58785;55.566;38.058;2023-05-03T01:04:51;100562.25;;;7.47;60.40
71126;BME280;58785;55.566;38.058;2023-05-03T01:12:54;100571.78;;;7.61;59.89
71126;BME280;58785;55.566;38.058;2023-05-03T01:18:14;100565.06;;;7.68;59.51
71126;BME280;58785;55.566;38.058;2023-05-03T01:20:43;100563.88;;;7.72;59.39
71126;BME280;58785;55.566;38.058;2023-05-03T01:25:58;100544.94;;;7.76;59.20
71126;BME280;58785;55.566;38.058;2023-05-03T01:28:24;100550.97;;;7.78;59.96
71126;BME280;58785;55.566;38.058;2023-05-03T01:30:51;100550.97;;;7.78;59.50
71126;BME280;58785;55.566;38.058;2023-05-03T01:36:40;100540.59;;;7.75;59.87
71126;BME280;58785;55.566;38.058;2023-05-03T01:39:11;100543.13;;;7.77;60.05
71126;BME280;58785;55.566;38.058;2023-05-03T01:41:39;100539.38;;;7.79;59.18
71126;BME280;58785;55.566;38.058;2023-05-03T01:44:08;100537.09;;;7.75;59.34
71126;BME280;58785;55.566;38.058;2023-05-03T01:46:41;100534.06;;;7.79;59.38
71126;BME280;58785;55.566;38.058;2023-05-03T01:49:07;100530.34;;;7.82;59.44
71126;BME280;58785;55.566;38.058;2023-05-03T01:51:33;100531.41;;;7.79;59.20
71126;BME280;58785;55.566;38.058;2023-05-03T01:53:59;100536.25;;;7.86;59.81
71126;BME280;58785;55.566;38.058;2023-05-03T01:56:24;100529.72;;;7.90;59.36
71126;BME280;58785;55.566;38.058;2023-05-03T01:58:50;100538.31;;;7.93;59.42
71126;BME280;58785;55.566;38.058;2023-05-03T02:01:16;100522.38;;;7.93;59.40
71126;BME280;58785;55.566;38.058;2023-05-03T02:03:41;100517.78;;;7.95;59.40
71126;BME280;58785;55.566;38.058;2023-05-03T02:06:07;100521.53;;;8.04;59.35
71126;BME280;58785;55.566;38.058;2023-05-03T02:08:32;100517.53;;;8.10;58.83
71126;BME280;58785;55.566;38.058;2023-05-03T02:10:58;100513.81;;;8.12;59.08
71126;BME280;58785;55.566;38.058;2023-05-03T02:13:24;100516.22;;;8.15;58.80
71126;BME280;58785;55.566;38.058;2023-05-03T02:15:49;100512.34;;;8.19;58.86
71126;BME280;58785;55.566;38.058;2023-05-03T02:18:15;100512.69;;;8.26;59.14
71126;BME280;58785;55.566;38.058;2023-05-03T02:20:45;100511.03;;;8.36;58.56
71126;BME280;58785;55.566;38.058;2023-05-03T02:23:11;100519.22;;;8.44;58.99
71126;BME280;58785;55.566;38.058;2023-05-03T02:25:36;100509.06;;;8.49;58.96
71126;BME280;58785;55.566;38.058;2023-05-03T02:28:02;100505.34;;;8.52;58.88
71126;BME280;58785;55.566;38.058;2023-05-03T02:30:27;100484.78;;;8.54;58.40
71126;BME280;58785;55.566;38.058;2023-05-03T02:32:53;100495.38;;;8.65;58.27
71126;BME280;58785;55.566;38.058;2023-05-03T02:35:19;100488.47;;;8.74;58.03
71126;BME280;58785;55.566;38.058;2023-05-03T02:37:45;100494.84;;;8.82;58.28
71126;BME280;58785;55.566;38.058;2023-05-03T02:40:11;100493.22;;;8.91;58.06
71126;BME280;58785;55.566;38.058;2023-05-03T02:42:38;100495.75;;;8.92;57.70
71126;BME280;58785;55.566;38.058;2023-05-03T02:45:04;100484.72;;;8.97;57.75
71126;BME280;58785;55.566;38.058;2023-05-03T02:47:31;100486.69;;;9.16;57.78
71126;BME280;58785;55.566;38.058;2023-05-03T02:49:56;100485.41;;;9.52;56.89
71126;BME280;58785;55.566;38.058;2023-05-03T02:52:22;100485.69;;;9.89;56.15
71126;BME280;58785;55.566;38.058;2023-05-03T02:54:47;100484.63;;;10.22;56.11
71126;BME280;58785;55.566;38.058;2023-05-03T02:57:14;100493.50;;;10.61;55.65
71126;BME280;58785;55.566;38.058;2023-05-03T02:59:40;100491.59;;;10.92;54.38
71126;BME280;58785;55.566;38.058;2023-05-03T03:02:06;100489.16;;;11.28;54.53
71126;BME280;58785;55.566;38.058;2023-05-03T03:04:31;100489.22;;;11.65;53.79
71126;BME280;58785;55.566;38.058;2023-05-03T03:06:57;100489.84;;;11.96;53.88
71126;BME280;58785;55.566;38.058;2023-05-03T03:09:23;100478.88;;;12.27;53.24
71126;BME280;58785;55.566;38.058;2023-05-03T03:11:51;100477.03;;;12.55;52.46
71126;BME280;58785;55.566;38.058;2023-05-03T03:14:17;100465.94;;;12.68;52.48
71126;BME280;58785;55.566;38.058;2023-05-03T03:16:44;100481.47;;;12.64;52.27
71126;BME280;58785;55.566;38.058;2023-05-03T03:19:10;100476.47;;;12.51;52.55
71126;BME280;58785;55.566;38.058;2023-05-03T03:21:36;100480.09;;;12.32;52.39
71126;BME280;58785;55.566;38.058;2023-05-03T03:24:02;100474.31;;;12.09;53.01
71126;BME280;58785;55.566;38.058;2023-05-03T03:26:28;100477.84;;;11.83;52.46
71126;BME280;58785;55.566;38.058;2023-05-03T03:28:54;100489.63;;;11.70;52.41
71126;BME280;58785;55.566;38.058;2023-05-03T03:31:20;100488.28;;;11.57;53.20
71126;BME280;58785;55.566;38.058;2023-05-03T03:33:48;100489.97;;;11.48;52.92
71126;BME280;58785;55.566;38.058;2023-05-03T03:36:14;100485.06;;;11.43;52.74
71126;BME280;58785;55.566;38.058;2023-05-03T03:38:40;100494.78;;;11.44;52.88
71126;BME280;58785;55.566;38.058;2023-05-03T03:41:06;100488.75;;;11.42;53.19
71126;BME280;58785;55.566;38.058;2023-05-03T03:43:32;100495.63;;;11.45;52.89
71126;BME280;58785;55.566;38.058;2023-05-03T03:45:58;100493.91;;;11.54;52.81
71126;BME280;58785;55.566;38.058;2023-05-03T03:48:23;100494.28;;;11.68;52.42
71126;BME280;58785;55.566;38.058;2023-05-03T03:50:49;100491.47;;;11.70;52.23
71126;BME280;58785;55.566;38.058;2023-05-03T03:53:15;100492.03;;;11.73;52.81
71126;BME280;58785;55.566;38.058;2023-05-03T03:55:41;100496.22;;;11.76;52.93
71126;BME280;58785;55.566;38.058;2023-05-03T03:58:07;100494.41;;;11.76;52.77
71126;BME280;58785;55.566;38.058;2023-05-03T04:00:34;100493.25;;;11.79;52.72
71126;BME280;58785;55.566;38.058;2023-05-03T04:03:03;100493.88;;;11.83;52.27
71126;BME280;58785;55.566;38.058;2023-05-03T04:05:30;100496.66;;;11.81;52.30
71126;BME280;58785;55.566;38.058;2023-05-03T04:07:56;100491.88;;;11.85;52.04
71126;BME280;58785;55.566;38.058;2023-05-03T04:10:22;100488.75;;;11.89;51.95
71126;BME280;58785;55.566;38.058;2023-05-03T04:12:47;100484.09;;;11.91;52.12
71126;BME280;58785;55.566;38.058;2023-05-03T04:15:13;100491.00;;;11.94;52.70
71126;BME280;58785;55.566;38.058;2023-05-03T04:17:40;100487.06;;;11.88;52.45
71126;BME280;58785;55.566;38.058;2023-05-03T04:20:07;100484.56;;;11.77;53.16
71126;BME280;58785;55.566;38.058;2023-05-03T04:22:36;100493.28;;;11.69;52.99
71126;BME280;58785;55.566;38.058;2023-05-03T04:25:04;100494.31;;;11.59;53.23
71126;BME280;58785;55.566;38.058;2023-05-03T04:27:30;100486.75;;;11.54;52.98
71126;BME280;58785;55.566;38.058;2023-05-03T04:29:57;100493.47;;;11.58;53.61
71126;BME280;58785;55.566;38.058;2023-05-03T04:32:24;100493.03;;;11.63;53.40
71126;BME280;58785;55.566;38.058;2023-05-03T04:34:50;100490.38;;;11.63;52.88
71126;BME280;58785;55.566;38.058;2023-05-03T04:37:17;100485.88;;;11.63;52.97
71126;BME280;58785;55.566;38.058;2023-05-03T04:39:46;100489.22;;;11.65;52.46
71126;BME280;58785;55.566;38.058;2023-05-03T04:42:12;100483.19;;;11.63;52.92
71126;BME280;58785;55.566;38.058;2023-05-03T04:44:41;100501.75;;;11.65;52.49
71126;BME280;58785;55.566;38.058;2023-05-03T04:47:07;100485.03;;;11.63;53.03
71126;BME280;58785;55.566;38.058;2023-05-03T04:49:34;100489.09;;;11.57;52.91
71126;BME280;58785;55.566;38.058;2023-05-03T04:52:00;100496.00;;;11.50;53.45
71126;BME280;58785;55.566;38.058;2023-05-03T04:54:27;100508.28;;;11.43;53.59
71126;BME280;58785;55.566;38.058;2023-05-03T04:56:53;100498.16;;;11.37;53.76
71126;BME280;58785;55.566;38.058;2023-05-03T04:59:20;100512.50;;;11.36;54.02
71126;BME280;58785;55.566;38.058;2023-05-03T05:01:45;100500.38;;;11.32;54.30
71126;BME280;58785;55.566;38.058;2023-05-03T05:04:11;100505.63;;;11.33;54.03
71126;BME280;58785;55.566;38.058;2023-05-03T05:06:37;100509.53;;;11.29;54.36
71126;BME280;58785;55.566;38.058;2023-05-03T05:09:05;100516.69;;;11.29;54.53
71126;BME280;58785;55.566;38.058;2023-05-03T05:11:32;100531.88;;;11.28;55.35
71126;BME280;58785;55.566;38.058;2023-05-03T05:13:58;100534.00;;;11.25;55.56
71126;BME280;58785;55.566;38.058;2023-05-03T05:16:24;100534.84;;;11.15;56.09
71126;BME280;58785;55.566;38.058;2023-05-03T05:18:49;100537.22;;;11.09;56.44
71126;BME280;58785;55.566;38.058;2023-05-03T05:21:15;100528.81;;;11.04;56.92
71126;BME280;58785;55.566;38.058;2023-05-03T05:23:41;100526.00;;;10.96;56.93
71126;BME280;58785;55.566;38.058;2023-05-03T05:26:06;100520.50;;;10.97;56.69
71126;BME280;58785;55.566;38.058;2023-05-03T05:28:32;100524.31;;;10.94;57.34
71126;BME280;58785;55.566;38.058;2023-05-03T05:30:58;100531.31;;;10.96;56.76
71126;BME280;58785;55.566;38.058;2023-05-03T05:33:23;100528.91;;;11.02;56.78
71126;BME280;58785;55.566;38.058;2023-05-03T05:35:49;100532.31;;;11.14;57.67
71126;BME280;58785;55.566;38.058;2023-05-03T05:38:15;100532.88;;;11.27;56.79
71126;BME280;58785;55.566;38.058;2023-05-03T05:40:42;100533.41;;;11.40;56.39
71126;BME280;58785;55.566;38.058;2023-05-03T05:43:08;100522.16;;;11.46;56.57
71126;BME280;58785;55.566;38.058;2023-05-03T05:45:34;100520.72;;;11.52;56.52
71126;BME280;58785;55.566;38.058;2023-05-03T05:48:00;100530.84;;;11.58;56.83
71126;BME280;58785;55.566;38.058;2023-05-03T05:50:26;100533.66;;;11.66;56.92
71126;BME280;58785;55.566;38.058;2023-05-03T05:52:52;100527.31;;;11.67;56.04
71126;BME280;58785;55.566;38.058;2023-05-03T05:55:19;100536.16;;;11.77;56.68
71126;BME280;58785;55.566;38.058;2023-05-03T05:57:45;100527.88;;;11.80;56.40
71126;BME280;58785;55.566;38.058;2023-05-03T06:00:12;100539.41;;;11.81;55.94
71126;BME280;58785;55.566;38.058;2023-05-03T06:02:42;100529.44;;;11.83;55.88
71126;BME280;58785;55.566;38.058;2023-05-03T06:05:09;100547.69;;;11.88;55.82
71126;BME280;58785;55.566;38.058;2023-05-03T06:07:36;100545.28;;;11.94;56.12
71126;BME280;58785;55.566;38.058;2023-05-03T06:10:03;100549.03;;;12.01;56.09
71126;BME280;58785;55.566;38.058;2023-05-03T06:12:30;100552.81;;;12.08;55.85
71126;BME280;58785;55.566;38.058;2023-05-03T06:14:55;100557.44;;;12.16;55.49
71126;BME280;58785;55.566;38.058;2023-05-03T06:17:21;100558.94;;;12.28;55.51
71126;BME280;58785;55.566;38.058;2023-05-03T06:19:48;100556.88;;;12.50;55.15
71126;BME280;58785;55.566;38.058;2023-05-03T06:22:17;100549.06;;;13.02;54.51
71126;BME280;58785;55.566;38.058;2023-05-03T06:24:42;100534.25;;;13.43;53.76
71126;BME280;58785;55.566;38.058;2023-05-03T06:27:09;100540.19;;;13.55;53.61
71126;BME280;58785;55.566;38.058;2023-05-03T06:29:35;100551.59;;;13.57;53.48
71126;BME280;58785;55.566;38.058;2023-05-03T06:32:01;100541.88;;;13.56;53.77
71126;BME280;58785;55.566;38.058;2023-05-03T06:34:28;100547.00;;;13.49;53.98
71126;BME280;58785;55.566;38.058;2023-05-03T06:36:54;100542.50;;;13.32;54.14
71126;BME280;58785;55.566;38.058;2023-05-03T06:39:20;100533.88;;;13.20;54.01
71126;BME280;58785;55.566;38.058;2023-05-03T06:41:45;100532.63;;;13.14;54.23
71126;BME280;58785;55.566;38.058;2023-05-03T06:44:11;100538.00;;;13.14;54.39
71126;BME280;58785;55.566;38.058;2023-05-03T06:46:37;100544.47;;;13.12;54.36
71126;BME280;58785;55.566;38.058;2023-05-03T06:49:02;100544.94;;;13.07;54.56
71126;BME280;58785;55.566;38.058;2023-05-03T06:51:28;100537.59;;;13.09;54.69
71126;BME280;58785;55.566;38.058;2023-05-03T06:53:56;100545.19;;;13.14;54.23
71126;BME280;58785;55.566;38.058;2023-05-03T06:56:22;100549.38;;;13.16;54.18
71126;BME280;58785;55.566;38.058;2023-05-03T06:58:49;100546.25;;;13.21;54.41
71126;BME280;58785;55.566;38.058;2023-05-03T07:01:15;100549.78;;;13.39;54.02
71126;BME280;58785;55.566;38.058;2023-05-03T07:03:41;100535.66;;;13.73;53.39
71126;BME280;58785;55.566;38.058;2023-05-03T07:06:07;100538.91;;;14.19;52.89
71126;BME280;58785;55.566;38.058;2023-05-03T07:08:33;100539.03;;;14.43;52.49
71126;BME280;58785;55.566;38.058;2023-05-03T07:10:58;100536.56;;;14.50;52.48
71126;BME280;58785;55.566;38.058;2023-05-03T07:13:24;100536.72;;;14.48;52.62
71126;BME280;58785;55.566;38.058;2023-05-03T07:15:50;100543.34;;;14.36;52.83
71126;BME280;58785;55.566;38.058;2023-05-03T07:18:15;100547.00;;;14.27;53.13
71126;BME280;58785;55.566;38.058;2023-05-03T07:20:41;100546.22;;;14.34;53.10
71126;BME280;58785;55.566;38.058;2023-05-03T07:23:07;100555.00;;;14.45;52.81
71126;BME280;58785;55.566;38.058;2023-05-03T07:25:33;100572.31;;;14.58;52.59
71126;BME280;58785;55.566;38.058;2023-05-03T07:27:59;100559.56;;;14.60;52.57
71126;BME280;58785;55.566;38.058;2023-05-03T07:30:24;100574.31;;;14.56;52.88
71126;BME280;58785;55.566;38.058;2023-05-03T07:32:50;100575.50;;;14.54;53.16
71126;BME280;58785;55.566;38.058;2023-05-03T07:35:16;100579.16;;;14.45;53.01
71126;BME280;58785;55.566;38.058;2023-05-03T07:37:42;100571.94;;;14.45;53.34
71126;BME280;58785;55.566;38.058;2023-05-03T07:40:08;100577.75;;;14.41;53.55
71126;BME280;58785;55.566;38.058;2023-05-03T07:42:34;100584.34;;;14.46;53.36
71126;BME280;58785;55.566;38.058;2023-05-03T07:45:01;100584.00;;;14.49;53.67
71126;BME280;58785;55.566;38.058;2023-05-03T07:47:26;100591.16;;;14.41;53.71
71126;BME280;58785;55.566;38.058;2023-05-03T07:49:52;100590.97;;;14.34;53.97
71126;BME280;58785;55.566;38.058;2023-05-03T07:52:18;100598.84;;;14.35;54.22
71126;BME280;58785;55.566;38.058;2023-05-03T07:54:44;100593.94;;;14.31;54.25
71126;BME280;58785;55.566;38.058;2023-05-03T07:57:13;100581.19;;;14.25;54.41
71126;BME280;58785;55.566;38.058;2023-05-03T07:59:41;100576.41;;;14.10;55.02
71126;BME280;58785;55.566;38.058;2023-05-03T08:02:08;100589.03;;;13.92;55.30
71126;BME280;58785;55.566;38.058;2023-05-03T08:04:34;100599.09;;;13.72;55.49
71126;BME280;58785;55.566;38.058;2023-05-03T08:07:02;100601.34;;;13.59;55.96
71126;BME280;58785;55.566;38.058;2023-05-03T08:09:29;100611.31;;;13.49;56.37
71126;BME280;58785;55.566;38.058;2023-05-03T08:11:55;100608.19;;;13.54;56.46
71126;BME280;58785;55.566;38.058;2023-05-03T08:14:24;100623.09;;;13.74;56.46
71126;BME280;58785;55.566;38.058;2023-05-03T08:16:50;100625.38;;;13.87;56.05
71126;BME280;58785;55.566;38.058;2023-05-03T08:19:16;100624.69;;;13.85;56.35
71126;BME280;58785;55.566;38.058;2023-05-03T08:21:41;100622.84;;;13.85;56.20
71126;BME280;58785;55.566;38.058;2023-05-03T08:24:07;100627.53;;;13.83;56.50
71126;BME280;58785;55.566;38.058;2023-05-03T08:26:34;100631.88;;;13.84;56.68
71126;BME280;58785;55.566;38.058;2023-05-03T08:29:00;100631.25;;;13.90;56.20
71126;BME280;58785;55.566;38.058;2023-05-03T08:31:28;100632.66;;;14.02;56.46
71126;BME280;58785;55.566;38.058;2023-05-03T08:33:55;100643.16;;;14.14;56.84
71126;BME280;58785;55.566;38.058;2023-05-03T08:36:22;100642.63;;;14.10;56.56
71126;BME280;58785;55.566;38.058;2023-05-03T08:38:48;100636.66;;;13.98;56.76
71126;BME280;58785;55.566;38.058;2023-05-03T08:41:30;100647.66;;;13.87;57.11
71126;BME280;58785;55.566;38.058;2023-05-03T08:43:57;100648.56;;;13.78;57.10
71126;BME280;58785;55.566;38.058;2023-05-03T08:46:23;100650.34;;;13.69;57.56
71126;BME280;58785;55.566;38.058;2023-05-03T08:48:54;100644.66;;;13.72;57.53
71126;BME280;58785;55.566;38.058;2023-05-03T08:51:21;100652.25;;;13.77;57.71
71126;BME280;58785;55.566;38.058;2023-05-03T08:53:48;100650.19;;;13.71;57.52
71126;BME280;58785;55.566;38.058;2023-05-03T08:56:29;100649.97;;;13.64;57.82
71126;BME280;58785;55.566;38.058;2023-05-03T08:58:56;100651.91;;;13.54;58.06
71126;BME280;58785;55.566;38.058;2023-05-03T09:01:25;100649.44;;;13.43;58.18
71126;BME280;58785;55.566;38.058;2023-05-03T09:03:51;100661.91;;;13.34;58.55
71126;BME280;58785;55.566;38.058;2023-05-03T09:06:22;100655.91;;;13.22;59.03
71126;BME280;58785;55.566;38.058;2023-05-03T09:08:51;100638.91;;;13.14;59.52
71126;BME280;58785;55.566;38.058;2023-05-03T09:11:28;100638.19;;;13.12;60.06
71126;BME280;58785;55.566;38.058;2023-05-03T09:14:15;100644.75;;;13.27;60.48
71126;BME280;58785;55.566;38.058;2023-05-03T09:16:43;100655.94;;;13.40;60.13
71126;BME280;58785;55.566;38.058;2023-05-03T09:19:10;100655.94;;;13.58;60.17
71126;BME280;58785;55.566;38.058;2023-05-03T09:21:38;100650.03;;;13.72;60.48
71126;BME280;58785;55.566;38.058;2023-05-03T09:24:15;100660.66;;;13.82;60.23
71126;BME280;58785;55.566;38.058;2023-05-03T09:26:42;100660.22;;;13.87;60.51
71126;BME280;58785;55.566;38.058;2023-05-03T09:29:08;100662.06;;;13.86;60.72
71126;BME280;58785;55.566;38.058;2023-05-03T09:31:35;100670.69;;;13.80;60.82
71126;BME280;58785;55.566;38.058;2023-05-03T09:34:01;100674.31;;;13.71;61.19
71126;BME280;58785;55.566;38.058;2023-05-03T09:36:44;100670.88;;;13.61;61.77
71126;BME280;58785;55.566;38.058;2023-05-03T09:39:17;100673.34;;;13.54;61.54
71126;BME280;58785;55.566;38.058;2023-05-03T09:41:44;100688.00;;;13.50;61.91
71126;BME280;58785;55.566;38.058;2023-05-03T09:44:10;100683.28;;;13.44;62.05
71126;BME280;58785;55.566;38.058;2023-05-03T09:46:37;100684.97;;;13.45;62.22
71126;BME280;58785;55.566;38.058;2023-05-03T09:49:02;100673.84;;;13.40;62.27
71126;BME280;58785;55.566;38.058;2023-05-03T09:51:28;100678.59;;;13.28;62.80
71126;BME280;58785;55.566;38.058;2023-05-03T09:53:55;100677.66;;;13.19;63.07
71126;BME280;58785;55.566;38.058;2023-05-03T09:56:21;100675.94;;;13.18;63.12
71126;BME280;58785;55.566;38.058;2023-05-03T09:58:51;100688.94;;;13.13;63.42
71126;BME280;58785;55.566;38.058;2023-05-03T10:01:18;100693.72;;;13.10;63.75
71126;BME280;58785;55.566;38.058;2023-05-03T10:03:48;100687.22;;;13.12;64.16
71126;BME280;58785;55.566;38.058;2023-05-03T10:06:30;100684.97;;;13.17;64.10
71126;BME280;58785;55.566;38.058;2023-05-03T10:09:04;100680.31;;;13.19;64.36
71126;BME280;58785;55.566;38.058;2023-05-03T10:11:33;100682.84;;;13.21;64.49
71126;BME280;58785;55.566;38.058;2023-05-03T10:14:00;100675.75;;;13.30;64.43
71126;BME280;58785;55.566;38.058;2023-05-03T10:16:31;100685.66;;;13.47;64.24
71126;BME280;58785;55.566;38.058;2023-05-03T10:19:20;100683.50;;;13.68;64.03
71126;BME280;58785;55.566;38.058;2023-05-03T10:22:05;100677.22;;;13.95;63.66
71126;BME280;58785;55.566;38.058;2023-05-03T10:25:17;100681.31;;;14.07;63.18
71126;BME280;58785;55.566;38.058;2023-05-03T10:27:18;100676.38;;;14.21;63.13
71126;BME280;58785;55.566;38.058;2023-05-03T10:29:44;100666.94;;;14.34;63.23
71126;BME280;58785;55.566;38.058;2023-05-03T10:32:32;100673.97;;;14.53;63.25
71126;BME280;58785;55.566;38.058;2023-05-03T10:34:58;100676.38;;;14.73;62.42
71126;BME280;58785;55.566;38.058;2023-05-03T10:37:26;100670.06;;;14.82;62.63
71126;BME280;58785;55.566;38.058;2023-05-03T10:39:53;100668.53;;;14.79;62.52
71126;BME280;58785;55.566;38.058;2023-05-03T10:42:21;100675.28;;;14.83;62.54
71126;BME280;58785;55.566;38.058;2023-05-03T10:44:49;100674.41;;;14.83;62.22
71126;BME280;58785;55.566;38.058;2023-05-03T10:47:17;100675.78;;;14.87;62.29
71126;BME280;58785;55.566;38.058;2023-05-03T10:49:44;100679.53;;;15.02;62.57
71126;BME280;58785;55.566;38.058;2023-05-03T10:55:00;100685.00;;;15.27;62.19
71126;BME280;58785;55.566;38.058;2023-05-03T10:57:30;100676.13;;;15.34;61.84
71126;BME280;58785;55.566;38.058;2023-05-03T10:59:57;100674.28;;;15.43;62.11
71126;BME280;58785;55.566;38.058;2023-05-03T11:02:31;100672.94;;;15.47;61.56
71126;BME280;58785;55.566;38.058;2023-05-03T11:05:01;100672.28;;;15.53;61.26
71126;BME280;58785;55.566;38.058;2023-05-03T11:07:30;100665.75;;;15.56;61.40
71126;BME280;58785;55.566;38.058;2023-05-03T11:09:56;100667.31;;;15.66;61.42
71126;BME280;58785;55.566;38.058;2023-05-03T11:12:22;100657.22;;;15.68;61.30
71126;BME280;58785;55.566;38.058;2023-05-03T11:14:49;100667.97;;;15.68;60.84
71126;BME280;58785;55.566;38.058;2023-05-03T11:17:15;100664.09;;;15.63;61.03
71126;BME280;58785;55.566;38.058;2023-05-03T11:19:45;100656.50;;;15.58;61.26
71126;BME280;58785;55.566;38.058;2023-05-03T11:22:10;100658.00;;;15.52;60.42
71126;BME280;58785;55.566;38.058;2023-05-03T11:24:37;100663.72;;;15.49;60.75
71126;BME280;58785;55.566;38.058;2023-05-03T11:27:03;100657.50;;;15.49;60.75
71126;BME280;58785;55.566;38.058;2023-05-03T11:29:29;100649.44;;;15.49;60.70
71126;BME280;58785;55.566;38.058;2023-05-03T11:31:55;100648.97;;;15.62;60.51
71126;BME280;58785;55.566;38.058;2023-05-03T11:34:21;100646.13;;;15.71;60.35
71126;BME280;58785;55.566;38.058;2023-05-03T11:36:47;100647.63;;;15.82;60.15
71126;BME280;58785;55.566;38.058;2023-05-03T11:39:13;100638.38;;;15.93;59.70
71126;BME280;58785;55.566;38.058;2023-05-03T11:41:40;100634.34;;;16.05;59.46
71126;BME280;58785;55.566;38.058;2023-05-03T11:44:06;100632.63;;;16.12;59.46
71126;BME280;58785;55.566;38.058;2023-05-03T11:46:35;100639.03;;;16.11;59.00
71126;BME280;58785;55.566;38.058;2023-05-03T11:49:01;100645.28;;;16.03;59.29
71126;BME280;58785;55.566;38.058;2023-05-03T11:51:27;100644.59;;;15.93;59.48
71126;BME280;58785;55.566;38.058;2023-05-03T11:53:54;100641.91;;;15.93;59.37
71126;BME280;58785;55.566;38.058;2023-05-03T11:56:21;100650.97;;;16.00;58.95
71126;BME280;58785;55.566;38.058;2023-05-03T11:58:55;100644.41;;;16.11;58.60
71126;BME280;58785;55.566;38.058;2023-05-03T12:01:27;100643.56;;;16.10;58.27
71126;BME280;58785;55.566;38.058;2023-05-03T12:06:23;100642.91;;;16.25;57.53
71126;BME280;58785;55.566;38.058;2023-05-03T12:08:49;100638.28;;;16.42;57.62
71126;BME280;58785;55.566;38.058;2023-05-03T12:11:14;100643.66;;;16.58;57.31
71126;BME280;58785;55.566;38.058;2023-05-03T12:13:40;100644.97;;;16.62;56.90
71126;BME280;58785;55.566;38.058;2023-05-03T12:16:08;100641.09;;;16.64;57.29
71126;BME280;58785;55.566;38.058;2023-05-03T12:21:11;100647.81;;;16.77;56.61
71126;BME280;58785;55.566;38.058;2023-05-03T12:23:36;100658.94;;;16.74;56.57
71126;BME280;58785;55.566;38.058;2023-05-03T12:26:02;100644.47;;;16.66;56.75
71126;BME280;58785;55.566;38.058;2023-05-03T12:28:28;100647.81;;;16.77;56.60
71126;BME280;58785;55.566;38.058;2023-05-03T12:30:54;100658.06;;;16.81;56.53
71126;BME280;58785;55.566;38.058;2023-05-03T12:33:20;100656.72;;;16.85;56.34
71126;BME280;58785;55.566;38.058;2023-05-03T12:35:46;100664.63;;;16.79;56.76
71126;BME280;58785;55.566;38.058;2023-05-03T12:38:12;100661.66;;;16.74;56.80
71126;BME280;58785;55.566;38.058;2023-05-03T12:40:37;100655.38;;;16.73;56.84
71126;BME280;58785;55.566;38.058;2023-05-03T12:43:05;100658.09;;;16.73;56.99
71126;BME280;58785;55.566;38.058;2023-05-03T12:45:31;100649.69;;;16.68;57.02
71126;BME280;58785;55.566;38.058;2023-05-03T12:47:57;100647.16;;;16.75;57.25
71126;BME280;58785;55.566;38.058;2023-05-03T12:50:23;100664.63;;;16.79;57.43
71126;BME280;58785;55.566;38.058;2023-05-03T12:52:49;100668.56;;;16.68;57.57
71126;BME280;58785;55.566;38.058;2023-05-03T12:55:15;100657.97;;;16.50;57.93
71126;BME280;58785;55.566;38.058;2023-05-03T12:57:40;100662.69;;;16.40;58.19
71126;BME280;58785;55.566;38.058;2023-05-03T13:00:07;100662.38;;;16.35;58.42
71126;BME280;58785;55.566;38.058;2023-05-03T13:02:34;100656.66;;;16.30;58.23
71126;BME280;58785;55.566;38.058;2023-05-03T13:05:00;100653.50;;;16.26;58.59